Passo de Camaragibe, Brazil
Current Conditions -  °F | °C
As of 3:00 AM on Wednesday 22 Oct 2014 (Local Time) from SBMO Reporting Station
Few Clouds Few Clouds  
Wind Chill: 66°   Ceiling: Unl
Heat Index: 66°   Visibility: 6mi
Dew Point: 66°   Wind: 3mph
Humidity: 100%   Direction: 30°NNE
Pressure: 29.94"   Gusts: NA
Location:  9.24°S, 35.49°W
Report Text: SBMO 220600Z 03003KT 9999 FEW020 19/19 Q1014
Loading
Personal Weather Stations






























Interactive Weather Map
Tropical Storm Tracking
New forecast layout! Learn more

10-Day Weather Forecast

Advertisements
Track Severe Weather on mobile